Portada
METAR-TAF:

METAR-TAF

Aeropuertos :

Aeropuerto Internacional de Pekín-Capital

Pekín, China

latitud: 39-56N, longitud: 116-17E, altitud: 55 m

Observación

El informe se hizo hace 30 minutos, a las 09:30 UTC
Viento 8 kt del norte
Temperatura 25°C
Humedad 13%
Presión 1004 hPa
Visibilidad 10 km o más
sin nubes por debajo de 1500 m y sin presencia de cumulonimbus.

METAR: ZBAA 080930Z 36004MPS CAVOK 25/M05 Q1004 NOSIG

Hora: 18:00 (10:00 UTC)

Pronóstico

El informe se hizo hace 6 horas y 58 minutos, a las 03:02 UTC
Pronóstico válido del 08 a las 06 UTC al 09 a las 06 UTC
Viento 14 kt del norte-noroeste
Visibilidad 10 km o más
sin nubes por debajo de 1500 m y sin presencia de cumulonimbus.
Evolucionando progresivamente
del 08 a las 10 UTC al 08 a las 11 UTC
Viento 8 kt del sur

TAF: ZBAA 080302Z 0806/0906 34007MPS CAVOK TX27/0807Z TN11/0821Z BECMG 0810/0811 18004MPS

Observaciones y pronósticos meteorológicos de más de 4000 aeropuertos (mensajes METAR y TAF).

Los puntos amarillos y rojos representan las estaciones disponibles.

Ponga el ratón en el punto deseado para ver el nombre de la estación.

Haga clic para ver las observaciones y los pronósticos meteorológicos.

Para cambiar el mapa : haga clic en los botones verdes con una cruz de color negro para hacer un zoom, en el botón verde con un guión para alejar o en las flechas verdes para mapas adyacentes.


METAR-TAF: